Ana Sayfa
METAR-TAF:

METAR-TAF

Havaalanları :

Esmeraldas, Ekvador

Enlem: 00-58-43N, Boylam: 079-37-36W, yükseklik: 10 m

Güncel hava durumu gözlemi

Rapor saat 23:00 UTC de 4 saat ve 40 dakika önce yapıldı.
Rüzgar batıdan 8 kt, güneybatı ve kuzeybatı arasında değişken
Sıcaklık 26°C
Nem 84%
Basınç 1009 hPa
Görüş mesafesi 10 km veya daha fazla
2000 ft yükseklikte az bulutlu

METAR: SETN 182300Z 26008KT 220V310 9999 FEW020 26/23 Q1009 A2981

Saat: 22:40 (03:40 UTC)


TAF: eksik

4.000'den fazla havaalanı için hava durumu gözlemleri ve tahminleri (METAR ve TAF raporları).

Kullanılabilir istasyonlar harita üzerinde sarı ve kırmızı noktalarla gösterilir.

İstasyonun adını görmek için fareyi noktanın üzerinde gezdirin.

Sonrasında hava gözlem ve tahminlerini görmek için tıklayın.

Haritayı değiştirmek için: yaklaştırmak için siyah artı işaretli yeşil düğmeye ve uzaklaştırmak için de eksi işaretli düğmeye hızla tıklayın; bitişik haritalar için yeşil okları kullanın.


METAR-TAF: